createdAt,value
2018-10-05T00:01:42.077Z,14.60
2018-10-05T00:04:10.434Z,16.27
2018-10-05T00:06:38.801Z,19.53
2018-10-05T00:09:10.035Z,21.93
2018-10-05T00:11:38.492Z,21.23
2018-10-05T00:14:07.454Z,18.27
2018-10-05T00:16:35.760Z,23.53
2018-10-05T00:19:04.143Z,20.33
2018-10-05T00:21:32.638Z,15.03
2018-10-05T00:24:01.303Z,18.00
2018-10-05T00:26:29.695Z,17.47
2018-10-05T00:28:58.136Z,16.47
2018-10-05T00:31:26.589Z,14.17
2018-10-05T00:33:54.911Z,22.33
2018-10-05T00:36:23.269Z,15.63
2018-10-05T00:38:51.677Z,17.87
2018-10-05T00:41:20.112Z,19.43
2018-10-05T00:43:48.524Z,16.20
2018-10-05T00:46:16.893Z,17.37
2018-10-05T00:48:45.313Z,18.13
2018-10-05T00:51:13.729Z,17.13
2018-10-05T00:53:42.197Z,19.37
2018-10-05T00:56:10.541Z,18.87
2018-10-05T00:58:39.019Z,18.90
2018-10-05T01:01:07.419Z,16.70
2018-10-05T01:03:35.790Z,16.20
2018-10-05T01:06:04.206Z,16.17
2018-10-05T01:08:32.542Z,15.80
2018-10-05T01:11:01.050Z,18.10
2018-10-05T01:13:29.398Z,13.90
2018-10-05T01:15:57.768Z,12.20
2018-10-05T01:18:26.114Z,12.30
2018-10-05T01:20:54.465Z,14.97
2018-10-05T01:23:22.854Z,10.20
2018-10-05T01:25:51.281Z,15.53
2018-10-05T01:28:19.711Z,15.40
2018-10-05T01:30:48.092Z,17.40
2018-10-05T01:33:16.450Z,15.60
2018-10-05T01:35:44.826Z,21.90
2018-10-05T01:38:13.279Z,21.53
2018-10-05T01:40:41.662Z,22.00
2018-10-05T01:43:10.059Z,13.43
2018-10-05T01:45:38.430Z,12.27
2018-10-05T01:48:06.770Z,13.33
2018-10-05T01:50:35.173Z,19.73
2018-10-05T01:53:03.501Z,13.27
2018-10-05T01:55:31.856Z,14.97
2018-10-05T01:58:00.181Z,14.17
2018-10-05T02:00:28.538Z,13.03
2018-10-05T02:02:56.877Z,13.30
2018-10-05T02:05:25.369Z,13.93
2018-10-05T02:07:53.776Z,17.40
2018-10-05T02:10:22.135Z,19.17
2018-10-05T02:12:50.559Z,15.03
2018-10-05T02:15:18.881Z,22.07
2018-10-05T02:17:47.322Z,23.43
2018-10-05T02:20:15.741Z,28.83
2018-10-05T02:22:44.174Z,20.30
2018-10-05T02:25:12.494Z,21.70
2018-10-05T02:27:40.988Z,19.70
2018-10-05T02:30:09.341Z,20.40
2018-10-05T02:32:37.685Z,20.60
2018-10-05T02:35:06.090Z,18.17
2018-10-05T02:37:34.483Z,18.77
2018-10-05T02:40:02.958Z,17.17
2018-10-05T02:42:31.277Z,19.63
2018-10-05T02:44:59.689Z,18.53
2018-10-05T02:47:28.197Z,18.07
2018-10-05T02:49:56.716Z,19.97
2018-10-05T02:52:25.180Z,18.17
2018-10-05T02:54:53.621Z,19.03
2018-10-05T02:57:22.049Z,19.87
2018-10-05T02:59:50.441Z,16.97
2018-10-05T03:02:33.000Z,16.20
2018-10-05T03:05:01.336Z,17.30
2018-10-05T03:07:30.589Z,15.90
2018-10-05T03:10:00.008Z,24.30
2018-10-05T03:12:28.538Z,25.27
2018-10-05T03:14:56.978Z,19.43
2018-10-05T03:17:25.315Z,16.37
2018-10-05T03:19:53.708Z,18.47
2018-10-05T03:22:21.983Z,16.77
2018-10-05T03:24:50.383Z,19.70
2018-10-05T03:27:18.678Z,18.80
2018-10-05T03:29:46.983Z,19.33
2018-10-05T03:32:15.414Z,18.67
2018-10-05T03:34:43.743Z,24.07
2018-10-05T03:37:12.103Z,14.70
2018-10-05T03:39:40.474Z,12.37
2018-10-05T03:42:08.854Z,15.13
2018-10-05T03:44:38.036Z,16.13
2018-10-05T03:47:06.391Z,18.47
2018-10-05T03:49:34.789Z,23.17
2018-10-05T03:52:03.157Z,14.40
2018-10-05T03:54:31.484Z,17.00
2018-10-05T03:56:59.817Z,13.90
2018-10-05T03:59:28.162Z,15.90
2018-10-05T04:01:56.475Z,15.23
2018-10-05T04:04:24.842Z,13.77
2018-10-05T04:06:53.144Z,17.43
2018-10-05T04:09:21.480Z,23.87
2018-10-05T04:11:49.930Z,17.27
2018-10-05T04:14:18.300Z,17.83
2018-10-05T04:16:46.655Z,16.97
2018-10-05T04:19:14.974Z,15.17
2018-10-05T04:21:43.421Z,20.80
2018-10-05T04:24:11.772Z,14.83
2018-10-05T04:26:40.120Z,13.30
2018-10-05T04:29:08.484Z,14.13
2018-10-05T04:31:36.919Z,14.53
2018-10-05T04:34:05.295Z,15.53
2018-10-05T04:36:33.649Z,12.23
2018-10-05T04:39:02.096Z,18.17
2018-10-05T04:41:30.418Z,15.40
2018-10-05T04:43:58.807Z,16.33
2018-10-05T04:46:27.187Z,21.83
2018-10-05T04:48:55.577Z,13.80
2018-10-05T04:51:23.908Z,17.80
2018-10-05T04:53:52.331Z,16.83
2018-10-05T04:56:20.784Z,17.57
2018-10-05T04:58:49.223Z,19.20
2018-10-05T05:01:17.905Z,23.30
2018-10-05T05:03:46.329Z,18.30
2018-10-05T05:06:14.782Z,15.00
2018-10-05T05:08:43.172Z,18.03
2018-10-05T05:11:11.581Z,14.47
2018-10-05T05:13:39.957Z,16.53
2018-10-05T05:16:08.379Z,14.30
2018-10-05T05:18:36.774Z,16.03
2018-10-05T05:21:05.651Z,15.03
2018-10-05T05:23:34.047Z,18.33
2018-10-05T05:26:02.461Z,20.80
2018-10-05T05:28:30.877Z,19.17
2018-10-05T05:30:59.268Z,17.80
2018-10-05T05:33:27.754Z,20.63
2018-10-05T05:35:56.111Z,18.70
2018-10-05T05:38:24.505Z,20.57
2018-10-05T05:40:52.877Z,28.13
2018-10-05T05:43:21.309Z,21.77
2018-10-05T05:45:49.670Z,18.90
2018-10-05T05:48:18.043Z,20.73
2018-10-05T05:50:46.462Z,19.30
2018-10-05T05:53:14.886Z,16.97
2018-10-05T05:55:43.330Z,19.87
2018-10-05T05:58:11.774Z,21.53
2018-10-05T06:00:40.205Z,14.20
2018-10-05T06:03:08.619Z,15.73
2018-10-05T06:05:36.994Z,16.50
2018-10-05T06:08:05.428Z,17.27
2018-10-05T06:10:33.781Z,12.10
2018-10-05T06:13:02.213Z,19.93
2018-10-05T06:15:30.659Z,17.10
2018-10-05T06:17:59.011Z,16.23
2018-10-05T06:20:27.432Z,14.10
2018-10-05T06:22:55.863Z,20.03
2018-10-05T06:25:24.259Z,14.40
2018-10-05T06:27:52.745Z,15.67
2018-10-05T06:30:21.147Z,10.43
2018-10-05T06:32:49.601Z,14.53
2018-10-05T06:35:18.016Z,12.40
2018-10-05T06:37:46.424Z,8.57
2018-10-05T06:40:14.830Z,14.37
2018-10-05T06:42:45.638Z,14.00
2018-10-05T06:45:14.095Z,10.70
2018-10-05T06:47:42.462Z,13.70
2018-10-05T06:50:10.822Z,15.27
2018-10-05T06:52:39.215Z,16.63
2018-10-05T06:55:07.554Z,18.50
2018-10-05T06:57:36.007Z,11.20
2018-10-05T07:00:04.627Z,16.03
2018-10-05T07:02:32.994Z,13.03
2018-10-05T07:05:01.447Z,10.20
2018-10-05T07:07:29.888Z,17.63
2018-10-05T07:09:58.277Z,15.43
2018-10-05T07:12:26.679Z,11.83
2018-10-05T07:14:55.030Z,12.40
2018-10-05T07:17:23.397Z,8.20
2018-10-05T07:19:51.741Z,9.70
2018-10-05T07:22:20.178Z,9.53
2018-10-05T07:24:48.522Z,9.00
2018-10-05T07:27:16.885Z,7.37
2018-10-05T07:29:45.301Z,9.23
2018-10-05T07:32:13.695Z,6.20
2018-10-05T07:34:42.116Z,10.70
2018-10-05T07:37:10.527Z,14.63
2018-10-05T07:39:38.828Z,11.90
2018-10-05T07:42:07.239Z,13.40
2018-10-05T07:44:35.582Z,11.50
2018-10-05T07:47:03.974Z,10.53
2018-10-05T07:49:32.325Z,9.67
2018-10-05T07:52:00.692Z,21.03
2018-10-05T07:54:29.050Z,13.03
2018-10-05T07:56:57.415Z,15.77
2018-10-05T07:59:25.758Z,13.97
2018-10-05T08:01:54.055Z,19.63
2018-10-05T08:04:22.410Z,24.27
2018-10-05T08:06:50.782Z,12.87
2018-10-05T08:09:19.231Z,16.10
2018-10-05T08:11:47.595Z,47.23
2018-10-05T08:14:15.970Z,26.70
2018-10-05T08:16:44.308Z,53.47
2018-10-05T08:19:12.688Z,15.80
2018-10-05T08:21:41.215Z,14.27
2018-10-05T08:24:09.466Z,13.20
2018-10-05T08:26:37.924Z,15.40
2018-10-05T08:29:06.294Z,10.40
2018-10-05T08:31:34.640Z,11.67
2018-10-05T08:34:03.055Z,13.87
2018-10-05T08:36:31.396Z,17.23
2018-10-05T08:38:59.766Z,24.33
2018-10-05T08:41:28.087Z,25.60
2018-10-05T08:43:56.585Z,21.87
2018-10-05T08:46:24.963Z,15.43
2018-10-05T08:48:53.423Z,19.83
2018-10-05T08:51:21.791Z,23.20
2018-10-05T08:53:50.140Z,20.30
2018-10-05T08:56:18.501Z,22.50
2018-10-05T08:58:46.837Z,23.63
2018-10-05T09:01:15.161Z,23.97
2018-10-05T09:03:43.483Z,19.23
2018-10-05T09:06:11.809Z,20.67
2018-10-05T09:08:40.167Z,22.20
2018-10-05T09:11:08.503Z,15.30
2018-10-05T09:13:36.897Z,13.73
2018-10-05T09:16:05.296Z,11.70
2018-10-05T09:18:33.672Z,14.23
2018-10-05T09:21:02.054Z,13.13
2018-10-05T09:23:30.493Z,14.73
2018-10-05T09:25:58.854Z,11.63
2018-10-05T09:28:27.228Z,15.20
2018-10-05T09:30:55.610Z,12.10
2018-10-05T09:33:24.023Z,10.83
2018-10-05T09:35:52.421Z,8.80
2018-10-05T09:38:20.782Z,9.37
2018-10-05T09:40:49.142Z,7.23
2018-10-05T09:43:17.578Z,5.83
2018-10-05T09:45:46.136Z,7.83
2018-10-05T09:48:14.480Z,10.37
2018-10-05T09:50:42.844Z,5.37
2018-10-05T09:53:11.230Z,8.93
2018-10-05T09:55:39.711Z,9.90
2018-10-05T09:58:08.093Z,6.23
2018-10-05T10:00:41.845Z,9.00
2018-10-05T10:03:15.758Z,5.33
2018-10-05T10:05:44.169Z,8.40
2018-10-05T10:08:12.652Z,5.60
2018-10-05T10:10:40.977Z,9.63
2018-10-05T10:13:09.360Z,4.03
2018-10-05T10:15:37.736Z,6.40
2018-10-05T10:18:06.258Z,4.57
2018-10-05T10:20:34.670Z,3.40
2018-10-05T10:23:03.042Z,3.40
2018-10-05T10:25:31.413Z,3.60
2018-10-05T10:27:59.833Z,5.70
2018-10-05T10:30:28.179Z,5.47
2018-10-05T10:32:56.653Z,7.27
2018-10-05T10:35:25.230Z,3.70
2018-10-05T10:37:53.783Z,9.73
2018-10-05T10:40:22.217Z,4.53
2018-10-05T10:42:50.684Z,4.70
2018-10-05T10:45:19.125Z,5.63
2018-10-05T10:47:47.530Z,4.30
2018-10-05T10:50:15.906Z,4.57
2018-10-05T10:52:44.269Z,11.17
2018-10-05T10:55:12.707Z,7.23
2018-10-05T10:57:41.136Z,4.33
2018-10-05T11:00:09.579Z,3.63
2018-10-05T11:02:37.930Z,4.30
2018-10-05T11:05:06.339Z,4.60
2018-10-05T11:07:34.860Z,5.63
2018-10-05T11:10:03.230Z,4.50
2018-10-05T11:12:31.609Z,5.00
2018-10-05T11:15:00.009Z,3.90
2018-10-05T11:17:28.456Z,5.03
2018-10-05T11:19:56.852Z,4.03
2018-10-05T11:22:25.318Z,5.10
2018-10-05T11:24:53.695Z,4.33
2018-10-05T11:27:22.049Z,3.70
2018-10-05T11:29:50.528Z,6.07
2018-10-05T11:32:18.889Z,5.40
2018-10-05T11:34:47.254Z,5.60
2018-10-05T11:37:15.750Z,4.93
2018-10-05T11:39:44.118Z,5.90
2018-10-05T11:42:12.567Z,5.23
2018-10-05T11:44:41.056Z,6.17
2018-10-05T11:47:09.555Z,5.30
2018-10-05T11:49:38.053Z,4.00
2018-10-05T11:52:06.608Z,10.03
2018-10-05T11:54:34.955Z,6.07
2018-10-05T11:57:03.448Z,3.60
2018-10-05T11:59:31.794Z,4.00
2018-10-05T12:02:00.131Z,7.00
2018-10-05T12:04:28.485Z,4.40
2018-10-05T12:06:57.002Z,5.33
2018-10-05T12:09:25.363Z,5.67
2018-10-05T12:11:53.705Z,5.47
2018-10-05T12:14:22.069Z,5.07
2018-10-05T12:16:50.471Z,4.30
2018-10-05T12:19:18.860Z,4.00
2018-10-05T12:21:47.192Z,8.30
2018-10-05T12:24:15.547Z,4.43
2018-10-05T12:26:43.976Z,7.47
2018-10-05T12:29:12.302Z,7.37
2018-10-05T12:31:40.650Z,5.60
2018-10-05T12:34:09.066Z,5.20
2018-10-05T12:36:37.397Z,4.40
2018-10-05T12:39:07.351Z,4.23
2018-10-05T12:41:36.214Z,7.67
2018-10-05T12:44:04.636Z,7.13
2018-10-05T12:46:33.010Z,3.63
2018-10-05T12:49:01.370Z,4.53
2018-10-05T12:51:29.740Z,6.60
2018-10-05T12:53:58.161Z,10.50
2018-10-05T12:56:27.095Z,4.33
2018-10-05T12:58:55.478Z,8.93
2018-10-05T13:01:23.877Z,5.37
2018-10-05T13:03:52.366Z,4.37
2018-10-05T13:06:20.765Z,6.20
2018-10-05T13:08:49.096Z,5.93
2018-10-05T13:11:17.473Z,5.80
2018-10-05T13:13:45.895Z,6.93
2018-10-05T13:16:14.428Z,4.60
2018-10-05T13:18:42.817Z,7.77
2018-10-05T13:21:11.216Z,5.23
2018-10-05T13:23:39.606Z,6.23
2018-10-05T13:26:08.719Z,10.60
2018-10-05T13:28:37.198Z,6.63
2018-10-05T13:31:05.627Z,5.20
2018-10-05T13:33:34.058Z,9.97
2018-10-05T13:36:02.464Z,6.80
2018-10-05T13:38:30.801Z,5.50
2018-10-05T13:40:59.211Z,11.43
2018-10-05T13:43:27.566Z,7.10
2018-10-05T13:45:55.923Z,4.53
2018-10-05T13:48:24.342Z,6.27
2018-10-05T13:50:52.692Z,7.23
2018-10-05T13:53:21.037Z,6.47
2018-10-05T13:55:49.428Z,5.90
2018-10-05T13:58:17.814Z,15.13
2018-10-05T14:00:46.193Z,8.17
2018-10-05T14:03:14.611Z,6.70
2018-10-05T14:05:43.026Z,8.53
2018-10-05T14:08:11.454Z,5.73
2018-10-05T14:10:39.825Z,6.20
2018-10-05T14:13:08.150Z,5.80
2018-10-05T14:15:36.529Z,6.70
2018-10-05T14:18:04.909Z,11.27
2018-10-05T14:20:33.323Z,9.67
2018-10-05T14:23:01.726Z,7.20
2018-10-05T14:25:30.138Z,6.13
2018-10-05T14:27:58.489Z,7.70
2018-10-05T14:30:26.969Z,8.27
2018-10-05T14:32:55.312Z,7.87
2018-10-05T14:35:23.721Z,5.30
2018-10-05T14:37:52.143Z,8.43
2018-10-05T14:40:20.513Z,10.70
2018-10-05T14:42:48.925Z,6.37
2018-10-05T14:45:17.267Z,5.73
2018-10-05T14:47:45.681Z,6.60
2018-10-05T14:50:14.065Z,7.37
2018-10-05T14:52:42.441Z,6.83
2018-10-05T14:55:10.875Z,6.80
2018-10-05T14:57:39.252Z,4.80
2018-10-05T15:00:07.606Z,9.20
2018-10-05T15:02:36.091Z,6.20
2018-10-05T15:05:04.473Z,10.47
2018-10-05T15:07:32.832Z,6.37
2018-10-05T15:10:01.213Z,7.80
2018-10-05T15:12:29.563Z,7.53
2018-10-05T15:14:57.966Z,9.27
2018-10-05T15:17:26.428Z,8.17
2018-10-05T15:19:54.769Z,5.10
2018-10-05T15:22:23.099Z,5.07
2018-10-05T15:24:51.497Z,8.20
2018-10-05T15:27:19.929Z,6.20
2018-10-05T15:29:48.266Z,10.33
2018-10-05T15:32:16.716Z,5.47
2018-10-05T15:34:45.176Z,8.60
2018-10-05T15:37:13.630Z,7.80
2018-10-05T15:39:42.045Z,9.00
2018-10-05T15:42:10.377Z,7.80
2018-10-05T15:44:38.727Z,9.50
2018-10-05T15:47:08.266Z,6.60
2018-10-05T15:49:37.257Z,7.53
2018-10-05T15:52:05.619Z,7.33
2018-10-05T15:54:34.014Z,9.47
2018-10-05T15:57:02.492Z,11.03
2018-10-05T15:59:31.614Z,8.63
2018-10-05T16:01:59.979Z,6.97
2018-10-05T16:04:29.094Z,8.67
2018-10-05T16:06:57.788Z,10.97
2018-10-05T16:09:26.218Z,13.53
2018-10-05T16:11:54.883Z,10.30
2018-10-05T16:14:23.318Z,5.77
2018-10-05T16:16:51.666Z,7.90
2018-10-05T16:19:20.021Z,6.13
2018-10-05T16:21:48.386Z,12.90
2018-10-05T16:24:21.362Z,8.40
2018-10-05T16:26:50.060Z,7.50
2018-10-05T16:29:18.460Z,10.77
2018-10-05T16:31:46.979Z,11.60
2018-10-05T16:34:15.379Z,8.30
2018-10-05T16:36:43.953Z,8.60
2018-10-05T16:39:12.697Z,12.50
2018-10-05T16:41:41.138Z,12.90
2018-10-05T16:44:09.556Z,8.53
2018-10-05T16:46:38.790Z,11.40
2018-10-05T16:49:08.706Z,11.03
2018-10-05T16:51:37.086Z,13.40
2018-10-05T16:54:05.470Z,10.57
2018-10-05T16:56:33.946Z,6.57
2018-10-05T16:59:02.425Z,9.17
2018-10-05T17:01:30.765Z,9.40
2018-10-05T17:03:59.247Z,9.63
2018-10-05T17:06:27.622Z,10.67
2018-10-05T17:08:59.338Z,7.37
2018-10-05T17:11:27.671Z,17.23
2018-10-05T17:13:56.201Z,9.83
2018-10-05T17:16:24.609Z,10.40
2018-10-05T17:18:52.964Z,19.97
2018-10-05T17:21:21.375Z,10.93
2018-10-05T17:23:49.756Z,7.73
2018-10-05T17:26:18.079Z,12.80
2018-10-05T17:28:46.618Z,14.10
2018-10-05T17:31:14.984Z,9.00
2018-10-05T17:33:43.377Z,11.10
2018-10-05T17:36:11.747Z,10.73
2018-10-05T17:38:40.092Z,9.90
2018-10-05T17:41:08.606Z,11.23
2018-10-05T17:43:36.921Z,11.63
2018-10-05T17:46:05.334Z,10.20
2018-10-05T17:48:33.649Z,8.90
2018-10-05T17:51:02.176Z,14.03
2018-10-05T17:53:30.563Z,23.00
2018-10-05T17:55:59.265Z,14.30
2018-10-05T17:58:27.620Z,11.80
2018-10-05T18:00:55.953Z,13.27
2018-10-05T18:03:24.297Z,7.67
2018-10-05T18:05:52.699Z,12.80
2018-10-05T18:08:21.112Z,9.83
2018-10-05T18:10:49.557Z,13.83
2018-10-05T18:13:17.908Z,12.93
2018-10-05T18:15:46.452Z,13.00
2018-10-05T18:18:15.049Z,12.63
2018-10-05T18:20:43.438Z,12.10
2018-10-05T18:23:11.867Z,12.33
2018-10-05T18:25:40.272Z,17.20
2018-10-05T18:28:08.677Z,9.13
2018-10-05T18:30:37.208Z,9.73
2018-10-05T18:33:05.587Z,10.57
2018-10-05T18:35:34.002Z,10.47
2018-10-05T18:38:02.387Z,14.83
2018-10-05T18:40:30.810Z,15.30
2018-10-05T18:42:59.257Z,17.87
2018-10-05T18:45:27.688Z,14.13
2018-10-05T18:47:56.148Z,13.40
2018-10-05T18:50:24.559Z,12.23
2018-10-05T18:52:53.089Z,14.20
2018-10-05T18:55:21.532Z,12.40
2018-10-05T18:57:49.885Z,13.87
2018-10-05T19:00:18.483Z,14.33
2018-10-05T19:02:47.101Z,12.83
2018-10-05T19:05:15.494Z,12.37
2018-10-05T19:07:43.985Z,16.73
2018-10-05T19:10:12.424Z,15.73
2018-10-05T19:12:40.800Z,16.57
2018-10-05T19:15:09.180Z,14.90
2018-10-05T19:17:37.569Z,16.10
2018-10-05T19:20:06.003Z,12.00
2018-10-05T19:22:34.438Z,12.83
2018-10-05T19:25:02.836Z,12.57
2018-10-05T19:27:31.339Z,14.97
2018-10-05T19:29:59.794Z,14.83
2018-10-05T19:32:28.191Z,15.53
2018-10-05T19:34:56.577Z,12.10
2018-10-05T19:37:25.064Z,18.90
2018-10-05T19:39:53.474Z,14.10
2018-10-05T19:42:21.939Z,11.60
2018-10-05T19:44:50.839Z,11.97
2018-10-05T19:47:19.327Z,13.03
2018-10-05T19:49:47.720Z,12.47
2018-10-05T19:52:16.109Z,12.10
2018-10-05T19:54:44.541Z,14.27
2018-10-05T19:57:12.939Z,10.40
2018-10-05T19:59:41.389Z,15.03
2018-10-05T20:02:09.840Z,13.10
2018-10-05T20:04:38.258Z,15.97
2018-10-05T20:07:06.622Z,13.70
2018-10-05T20:09:35.011Z,16.80
2018-10-05T20:12:03.581Z,25.50
2018-10-05T20:14:32.101Z,14.33
2018-10-05T20:17:00.584Z,14.20
2018-10-05T20:19:29.005Z,15.60
2018-10-05T20:21:57.448Z,17.57
2018-10-05T20:24:26.107Z,15.37
2018-10-05T20:26:54.458Z,14.53
2018-10-05T20:29:22.873Z,14.00
2018-10-05T20:31:51.307Z,16.10
2018-10-05T20:34:19.684Z,15.00
2018-10-05T20:36:48.379Z,16.40
2018-10-05T20:39:16.530Z,17.83
2018-10-05T20:41:44.948Z,18.07
2018-10-05T20:44:13.402Z,14.20
2018-10-05T20:46:41.809Z,13.87
2018-10-05T20:49:10.208Z,16.13
2018-10-05T20:51:38.616Z,14.10
2018-10-05T20:54:07.003Z,11.63
2018-10-05T20:56:35.419Z,21.87
2018-10-05T20:59:03.857Z,19.90
2018-10-05T21:01:32.236Z,14.53
2018-10-05T21:04:00.654Z,15.67
2018-10-05T21:06:29.002Z,13.27
2018-10-05T21:08:57.398Z,16.47
2018-10-05T21:11:25.842Z,21.90
2018-10-05T21:13:54.272Z,15.70
2018-10-05T21:16:22.672Z,19.83
2018-10-05T21:18:51.071Z,11.20
2018-10-05T21:21:19.489Z,17.53
2018-10-05T21:23:47.846Z,14.43
2018-10-05T21:26:16.211Z,16.13
2018-10-05T21:28:44.642Z,16.17
2018-10-05T21:31:13.047Z,14.50
2018-10-05T21:33:41.448Z,16.13
2018-10-05T21:36:09.790Z,14.00
2018-10-05T21:38:38.256Z,12.40
2018-10-05T21:41:06.714Z,21.53
2018-10-05T21:43:35.161Z,22.00
2018-10-05T21:46:03.557Z,17.83
2018-10-05T21:48:31.945Z,19.70
2018-10-05T21:51:00.352Z,16.27
2018-10-05T21:53:28.793Z,13.13
2018-10-05T21:55:57.226Z,16.50
2018-10-05T21:58:25.587Z,12.90
2018-10-05T22:00:53.977Z,19.20
2018-10-05T22:03:22.350Z,18.53
2018-10-05T22:05:50.937Z,18.97
2018-10-05T22:08:19.283Z,17.80
2018-10-05T22:10:47.627Z,19.77
2018-10-05T22:13:16.020Z,18.93
2018-10-05T22:15:44.335Z,15.73
2018-10-05T22:18:12.757Z,13.27
2018-10-05T22:20:41.098Z,16.70
2018-10-05T22:23:09.456Z,30.47
2018-10-05T22:25:37.808Z,16.30
2018-10-05T22:28:06.176Z,18.90
2018-10-05T22:30:34.630Z,18.23
2018-10-05T22:33:02.955Z,18.37
2018-10-05T22:35:31.316Z,18.70
2018-10-05T22:37:59.692Z,14.03
2018-10-05T22:40:28.037Z,15.83
2018-10-05T22:42:56.407Z,20.43
2018-10-05T22:45:24.778Z,16.90
2018-10-05T22:47:53.148Z,18.77
2018-10-05T22:50:21.521Z,17.33
2018-10-05T22:52:49.866Z,19.37
2018-10-05T22:55:18.265Z,15.37
2018-10-05T22:57:46.609Z,13.20
2018-10-05T23:00:14.980Z,14.50
2018-10-05T23:02:43.334Z,16.10
2018-10-05T23:05:11.688Z,19.40
2018-10-05T23:07:40.069Z,20.57
2018-10-05T23:10:08.451Z,27.77
2018-10-05T23:12:36.850Z,19.60
2018-10-05T23:15:05.694Z,21.10
2018-10-05T23:17:34.014Z,15.70
2018-10-05T23:20:02.377Z,17.80
2018-10-05T23:22:30.725Z,19.23
2018-10-05T23:24:59.201Z,20.73
2018-10-05T23:27:27.782Z,15.93
2018-10-05T23:29:56.152Z,20.40
2018-10-05T23:32:24.560Z,20.90
2018-10-05T23:34:52.985Z,21.20
2018-10-05T23:37:21.349Z,22.67
2018-10-05T23:39:49.687Z,23.00
2018-10-05T23:42:18.022Z,19.30
2018-10-05T23:44:46.498Z,19.17
2018-10-05T23:47:14.862Z,19.60
2018-10-05T23:49:43.194Z,18.93
2018-10-05T23:52:22.777Z,18.17
2018-10-05T23:54:51.087Z,18.30
2018-10-05T23:57:19.540Z,19.40
2018-10-05T23:59:47.859Z,22.60
